sensor_id;sensor_type;location;lat;lon;timestamp;P1;durP1;ratioP1;P2;durP2;ratioP2
36593;SDS011;22603;47.900;8.146;2023-06-22T00:01:20;12.27;;;4.47;;
36593;SDS011;22603;47.900;8.146;2023-06-22T00:04:08;15.45;;;4.93;;
36593;SDS011;22603;47.900;8.146;2023-06-22T00:06:56;12.35;;;5.25;;
36593;SDS011;22603;47.900;8.146;2023-06-22T00:09:43;12.52;;;4.20;;
36593;SDS011;22603;47.900;8.146;2023-06-22T00:12:30;13.10;;;4.80;;
36593;SDS011;22603;47.900;8.146;2023-06-22T00:15:17;14.95;;;5.22;;
36593;SDS011;22603;47.900;8.146;2023-06-22T00:18:05;15.35;;;4.72;;
36593;SDS011;22603;47.900;8.146;2023-06-22T00:20:53;12.02;;;4.60;;
36593;SDS011;22603;47.900;8.146;2023-06-22T00:23:44;14.10;;;5.05;;
36593;SDS011;22603;47.900;8.146;2023-06-22T00:26:31;10.13;;;4.07;;
36593;SDS011;22603;47.900;8.146;2023-06-22T00:29:18;12.38;;;4.35;;
36593;SDS011;22603;47.900;8.146;2023-06-22T00:32:07;14.65;;;4.47;;
36593;SDS011;22603;47.900;8.146;2023-06-22T00:34:53;13.77;;;4.85;;
36593;SDS011;22603;47.900;8.146;2023-06-22T00:37:40;10.40;;;4.20;;
36593;SDS011;22603;47.900;8.146;2023-06-22T00:40:30;11.75;;;4.45;;
36593;SDS011;22603;47.900;8.146;2023-06-22T00:43:17;16.58;;;4.68;;
36593;SDS011;22603;47.900;8.146;2023-06-22T00:46:04;12.57;;;5.20;;
36593;SDS011;22603;47.900;8.146;2023-06-22T00:48:52;10.77;;;4.20;;
36593;SDS011;22603;47.900;8.146;2023-06-22T00:51:42;10.80;;;4.60;;
36593;SDS011;22603;47.900;8.146;2023-06-22T00:54:32;11.30;;;4.68;;
36593;SDS011;22603;47.900;8.146;2023-06-22T00:57:21;12.38;;;4.13;;
36593;SDS011;22603;47.900;8.146;2023-06-22T01:00:10;10.87;;;4.70;;
36593;SDS011;22603;47.900;8.146;2023-06-22T01:03:04;11.87;;;4.67;;
36593;SDS011;22603;47.900;8.146;2023-06-22T01:05:55;13.40;;;4.75;;
36593;SDS011;22603;47.900;8.146;2023-06-22T01:08:48;9.38;;;4.30;;
36593;SDS011;22603;47.900;8.146;2023-06-22T01:11:42;11.38;;;4.22;;
36593;SDS011;22603;47.900;8.146;2023-06-22T01:14:37;10.90;;;4.30;;
36593;SDS011;22603;47.900;8.146;2023-06-22T01:17:28;15.15;;;4.50;;
36593;SDS011;22603;47.900;8.146;2023-06-22T01:20:17;13.27;;;4.65;;
36593;SDS011;22603;47.900;8.146;2023-06-22T01:23:07;9.10;;;4.05;;
36593;SDS011;22603;47.900;8.146;2023-06-22T01:26:02;15.20;;;4.87;;
36593;SDS011;22603;47.900;8.146;2023-06-22T01:28:57;8.80;;;3.88;;
36593;SDS011;22603;47.900;8.146;2023-06-22T01:31:45;9.13;;;4.20;;
36593;SDS011;22603;47.900;8.146;2023-06-22T01:34:35;10.97;;;4.30;;
36593;SDS011;22603;47.900;8.146;2023-06-22T01:37:25;10.70;;;4.30;;
36593;SDS011;22603;47.900;8.146;2023-06-22T01:40:12;12.23;;;4.17;;
36593;SDS011;22603;47.900;8.146;2023-06-22T01:43:01;18.67;;;4.30;;
36593;SDS011;22603;47.900;8.146;2023-06-22T01:45:50;8.50;;;3.73;;
36593;SDS011;22603;47.900;8.146;2023-06-22T01:48:38;10.97;;;3.97;;
36593;SDS011;22603;47.900;8.146;2023-06-22T01:51:25;9.80;;;4.23;;
36593;SDS011;22603;47.900;8.146;2023-06-22T01:54:12;10.43;;;4.43;;
36593;SDS011;22603;47.900;8.146;2023-06-22T01:56:59;13.87;;;4.23;;
36593;SDS011;22603;47.900;8.146;2023-06-22T01:59:48;10.60;;;3.80;;
36593;SDS011;22603;47.900;8.146;2023-06-22T02:02:48;13.70;;;4.63;;
36593;SDS011;22603;47.900;8.146;2023-06-22T02:05:56;10.20;;;3.93;;
36593;SDS011;22603;47.900;8.146;2023-06-22T02:08:48;8.37;;;3.97;;
36593;SDS011;22603;47.900;8.146;2023-06-22T02:11:38;10.87;;;4.50;;
36593;SDS011;22603;47.900;8.146;2023-06-22T02:14:28;17.03;;;5.57;;
36593;SDS011;22603;47.900;8.146;2023-06-22T02:17:17;13.70;;;4.93;;
36593;SDS011;22603;47.900;8.146;2023-06-22T02:20:06;19.50;;;5.10;;
36593;SDS011;22603;47.900;8.146;2023-06-22T02:22:59;13.87;;;4.03;;
36593;SDS011;22603;47.900;8.146;2023-06-22T02:25:46;12.87;;;4.97;;
36593;SDS011;22603;47.900;8.146;2023-06-22T02:28:33;11.70;;;4.23;;
36593;SDS011;22603;47.900;8.146;2023-06-22T02:31:20;10.37;;;4.30;;
36593;SDS011;22603;47.900;8.146;2023-06-22T02:34:07;11.53;;;4.40;;
36593;SDS011;22603;47.900;8.146;2023-06-22T02:36:55;10.73;;;4.10;;
36593;SDS011;22603;47.900;8.146;2023-06-22T02:39:46;9.47;;;3.93;;
36593;SDS011;22603;47.900;8.146;2023-06-22T02:42:33;10.97;;;4.30;;
36593;SDS011;22603;47.900;8.146;2023-06-22T02:45:19;9.40;;;4.00;;
36593;SDS011;22603;47.900;8.146;2023-06-22T02:48:07;10.40;;;4.20;;
36593;SDS011;22603;47.900;8.146;2023-06-22T02:50:53;12.00;;;4.30;;
36593;SDS011;22603;47.900;8.146;2023-06-22T02:53:45;9.90;;;4.30;;
36593;SDS011;22603;47.900;8.146;2023-06-22T02:56:32;12.70;;;4.47;;
36593;SDS011;22603;47.900;8.146;2023-06-22T02:59:19;10.07;;;3.97;;
36593;SDS011;22603;47.900;8.146;2023-06-22T03:02:09;10.60;;;4.70;;
36593;SDS011;22603;47.900;8.146;2023-06-22T03:04:56;9.57;;;4.10;;
36593;SDS011;22603;47.900;8.146;2023-06-22T03:07:45;13.03;;;4.27;;
36593;SDS011;22603;47.900;8.146;2023-06-22T03:10:34;13.20;;;3.87;;
36593;SDS011;22603;47.900;8.146;2023-06-22T03:13:21;9.83;;;4.13;;
36593;SDS011;22603;47.900;8.146;2023-06-22T03:16:08;9.83;;;4.27;;
36593;SDS011;22603;47.900;8.146;2023-06-22T03:18:55;12.13;;;4.60;;
36593;SDS011;22603;47.900;8.146;2023-06-22T03:21:42;10.97;;;4.20;;
36593;SDS011;22603;47.900;8.146;2023-06-22T03:24:29;12.20;;;5.07;;
36593;SDS011;22603;47.900;8.146;2023-06-22T03:27:18;10.10;;;4.47;;
36593;SDS011;22603;47.900;8.146;2023-06-22T03:30:06;12.63;;;5.23;;
36593;SDS011;22603;47.900;8.146;2023-06-22T03:32:55;15.77;;;4.83;;
36593;SDS011;22603;47.900;8.146;2023-06-22T03:35:42;11.33;;;4.27;;
36593;SDS011;22603;47.900;8.146;2023-06-22T03:38:29;14.27;;;5.23;;
36593;SDS011;22603;47.900;8.146;2023-06-22T03:41:17;10.67;;;5.07;;
36593;SDS011;22603;47.900;8.146;2023-06-22T03:44:05;15.27;;;5.40;;
36593;SDS011;22603;47.900;8.146;2023-06-22T03:46:55;11.60;;;4.67;;
36593;SDS011;22603;47.900;8.146;2023-06-22T03:49:43;10.33;;;4.77;;
36593;SDS011;22603;47.900;8.146;2023-06-22T03:52:29;10.83;;;5.00;;
36593;SDS011;22603;47.900;8.146;2023-06-22T03:55:17;16.30;;;5.03;;
36593;SDS011;22603;47.900;8.146;2023-06-22T03:58:06;10.43;;;4.40;;
36593;SDS011;22603;47.900;8.146;2023-06-22T04:00:56;11.00;;;4.63;;
36593;SDS011;22603;47.900;8.146;2023-06-22T04:03:42;11.27;;;3.60;;
36593;SDS011;22603;47.900;8.146;2023-06-22T04:06:30;10.23;;;3.93;;
36593;SDS011;22603;47.900;8.146;2023-06-22T04:09:19;11.83;;;4.27;;
36593;SDS011;22603;47.900;8.146;2023-06-22T04:12:07;14.97;;;4.47;;
36593;SDS011;22603;47.900;8.146;2023-06-22T04:14:54;9.37;;;4.33;;
36593;SDS011;22603;47.900;8.146;2023-06-22T04:17:43;13.73;;;4.60;;
36593;SDS011;22603;47.900;8.146;2023-06-22T04:20:31;13.30;;;4.43;;
36593;SDS011;22603;47.900;8.146;2023-06-22T04:23:18;11.33;;;4.37;;
36593;SDS011;22603;47.900;8.146;2023-06-22T04:26:05;15.53;;;4.67;;
36593;SDS011;22603;47.900;8.146;2023-06-22T04:28:53;10.00;;;4.43;;
36593;SDS011;22603;47.900;8.146;2023-06-22T04:31:40;10.75;;;4.55;;
36593;SDS011;22603;47.900;8.146;2023-06-22T04:34:29;12.33;;;4.93;;
36593;SDS011;22603;47.900;8.146;2023-06-22T04:37:16;14.20;;;4.30;;
36593;SDS011;22603;47.900;8.146;2023-06-22T04:40:04;15.97;;;4.50;;
36593;SDS011;22603;47.900;8.146;2023-06-22T04:42:52;8.57;;;4.07;;
36593;SDS011;22603;47.900;8.146;2023-06-22T04:45:40;11.95;;;4.53;;
36593;SDS011;22603;47.900;8.146;2023-06-22T04:48:27;8.27;;;3.97;;
36593;SDS011;22603;47.900;8.146;2023-06-22T04:51:19;16.98;;;4.88;;
36593;SDS011;22603;47.900;8.146;2023-06-22T04:54:07;17.80;;;4.55;;
36593;SDS011;22603;47.900;8.146;2023-06-22T04:56:54;12.83;;;4.17;;
36593;SDS011;22603;47.900;8.146;2023-06-22T04:59:42;10.40;;;4.40;;
36593;SDS011;22603;47.900;8.146;2023-06-22T05:02:29;9.43;;;4.15;;
36593;SDS011;22603;47.900;8.146;2023-06-22T05:05:17;11.43;;;4.53;;
36593;SDS011;22603;47.900;8.146;2023-06-22T05:08:06;13.50;;;4.50;;
36593;SDS011;22603;47.900;8.146;2023-06-22T05:10:52;14.80;;;4.95;;
36593;SDS011;22603;47.900;8.146;2023-06-22T05:13:50;12.10;;;4.90;;
36593;SDS011;22603;47.900;8.146;2023-06-22T05:16:37;13.45;;;5.00;;
36593;SDS011;22603;47.900;8.146;2023-06-22T05:19:24;11.38;;;4.93;;
36593;SDS011;22603;47.900;8.146;2023-06-22T05:22:16;11.80;;;4.95;;
36593;SDS011;22603;47.900;8.146;2023-06-22T05:25:07;11.68;;;4.88;;
36593;SDS011;22603;47.900;8.146;2023-06-22T05:27:56;9.95;;;4.97;;
36593;SDS011;22603;47.900;8.146;2023-06-22T05:30:43;13.38;;;4.97;;
36593;SDS011;22603;47.900;8.146;2023-06-22T05:33:30;9.90;;;4.15;;
36593;SDS011;22603;47.900;8.146;2023-06-22T05:36:18;10.88;;;4.20;;
36593;SDS011;22603;47.900;8.146;2023-06-22T05:39:10;15.43;;;4.78;;
36593;SDS011;22603;47.900;8.146;2023-06-22T05:42:00;11.73;;;4.13;;
36593;SDS011;22603;47.900;8.146;2023-06-22T05:44:47;13.27;;;4.45;;
36593;SDS011;22603;47.900;8.146;2023-06-22T05:47:34;12.65;;;4.72;;
36593;SDS011;22603;47.900;8.146;2023-06-22T05:50:21;11.40;;;4.70;;
36593;SDS011;22603;47.900;8.146;2023-06-22T05:53:08;12.45;;;4.45;;
36593;SDS011;22603;47.900;8.146;2023-06-22T05:55:55;11.30;;;3.92;;
36593;SDS011;22603;47.900;8.146;2023-06-22T05:58:44;9.13;;;4.13;;
36593;SDS011;22603;47.900;8.146;2023-06-22T06:01:32;11.57;;;3.97;;
36593;SDS011;22603;47.900;8.146;2023-06-22T06:04:21;11.35;;;4.30;;
36593;SDS011;22603;47.900;8.146;2023-06-22T06:07:09;15.30;;;4.55;;
36593;SDS011;22603;47.900;8.146;2023-06-22T06:09:56;10.27;;;4.15;;
36593;SDS011;22603;47.900;8.146;2023-06-22T06:12:42;12.57;;;4.63;;
36593;SDS011;22603;47.900;8.146;2023-06-22T06:15:31;14.38;;;4.30;;
36593;SDS011;22603;47.900;8.146;2023-06-22T06:18:18;12.85;;;4.82;;
36593;SDS011;22603;47.900;8.146;2023-06-22T06:21:06;10.23;;;3.65;;
36593;SDS011;22603;47.900;8.146;2023-06-22T06:23:53;15.15;;;4.03;;
36593;SDS011;22603;47.900;8.146;2023-06-22T06:26:40;11.45;;;4.18;;
36593;SDS011;22603;47.900;8.146;2023-06-22T06:29:28;12.00;;;4.45;;
36593;SDS011;22603;47.900;8.146;2023-06-22T06:32:16;9.35;;;3.92;;
36593;SDS011;22603;47.900;8.146;2023-06-22T06:35:04;11.00;;;3.55;;
36593;SDS011;22603;47.900;8.146;2023-06-22T06:37:52;11.23;;;3.83;;
36593;SDS011;22603;47.900;8.146;2023-06-22T06:40:39;10.10;;;3.40;;
36593;SDS011;22603;47.900;8.146;2023-06-22T06:43:26;8.93;;;3.58;;
36593;SDS011;22603;47.900;8.146;2023-06-22T06:46:13;9.60;;;4.03;;
36593;SDS011;22603;47.900;8.146;2023-06-22T06:49:01;11.20;;;3.70;;
36593;SDS011;22603;47.900;8.146;2023-06-22T06:51:49;10.50;;;4.10;;
36593;SDS011;22603;47.900;8.146;2023-06-22T06:54:36;13.48;;;4.18;;
36593;SDS011;22603;47.900;8.146;2023-06-22T06:57:23;12.27;;;4.00;;
36593;SDS011;22603;47.900;8.146;2023-06-22T07:00:14;9.73;;;3.88;;
36593;SDS011;22603;47.900;8.146;2023-06-22T07:03:05;13.70;;;4.00;;
36593;SDS011;22603;47.900;8.146;2023-06-22T07:05:54;15.05;;;4.22;;
36593;SDS011;22603;47.900;8.146;2023-06-22T07:08:42;13.05;;;3.90;;
36593;SDS011;22603;47.900;8.146;2023-06-22T07:11:29;12.88;;;4.10;;
36593;SDS011;22603;47.900;8.146;2023-06-22T07:14:16;15.30;;;4.43;;
36593;SDS011;22603;47.900;8.146;2023-06-22T07:17:03;12.50;;;3.85;;
36593;SDS011;22603;47.900;8.146;2023-06-22T07:19:50;13.63;;;3.63;;
36593;SDS011;22603;47.900;8.146;2023-06-22T07:22:39;10.85;;;4.18;;
36593;SDS011;22603;47.900;8.146;2023-06-22T07:25:27;9.93;;;3.55;;
36593;SDS011;22603;47.900;8.146;2023-06-22T07:28:14;9.35;;;4.00;;
36593;SDS011;22603;47.900;8.146;2023-06-22T07:31:01;14.75;;;4.20;;
36593;SDS011;22603;47.900;8.146;2023-06-22T07:33:49;9.70;;;3.50;;
36593;SDS011;22603;47.900;8.146;2023-06-22T07:36:36;13.70;;;3.83;;
36593;SDS011;22603;47.900;8.146;2023-06-22T07:39:24;13.43;;;4.25;;
36593;SDS011;22603;47.900;8.146;2023-06-22T07:42:12;14.63;;;4.03;;
36593;SDS011;22603;47.900;8.146;2023-06-22T07:45:04;9.57;;;3.70;;
36593;SDS011;22603;47.900;8.146;2023-06-22T07:47:54;14.93;;;3.88;;
36593;SDS011;22603;47.900;8.146;2023-06-22T07:50:41;15.35;;;4.18;;
36593;SDS011;22603;47.900;8.146;2023-06-22T07:53:28;15.55;;;4.15;;
36593;SDS011;22603;47.900;8.146;2023-06-22T07:56:16;10.60;;;4.25;;
36593;SDS011;22603;47.900;8.146;2023-06-22T07:59:04;8.25;;;3.65;;
36593;SDS011;22603;47.900;8.146;2023-06-22T08:01:51;15.75;;;4.22;;
36593;SDS011;22603;47.900;8.146;2023-06-22T08:04:39;12.18;;;4.55;;
36593;SDS011;22603;47.900;8.146;2023-06-22T08:07:26;16.27;;;4.80;;
36593;SDS011;22603;47.900;8.146;2023-06-22T08:10:13;12.48;;;4.00;;
36593;SDS011;22603;47.900;8.146;2023-06-22T08:13:03;9.85;;;3.97;;
36593;SDS011;22603;47.900;8.146;2023-06-22T08:15:50;9.68;;;3.83;;
36593;SDS011;22603;47.900;8.146;2023-06-22T08:18:38;15.52;;;3.75;;
36593;SDS011;22603;47.900;8.146;2023-06-22T08:21:25;9.95;;;3.83;;
36593;SDS011;22603;47.900;8.146;2023-06-22T08:24:11;10.25;;;4.13;;
36593;SDS011;22603;47.900;8.146;2023-06-22T08:26:58;14.32;;;3.65;;
36593;SDS011;22603;47.900;8.146;2023-06-22T08:29:47;16.45;;;3.95;;
36593;SDS011;22603;47.900;8.146;2023-06-22T08:32:35;10.50;;;3.50;;
36593;SDS011;22603;47.900;8.146;2023-06-22T08:35:22;18.13;;;4.30;;
36593;SDS011;22603;47.900;8.146;2023-06-22T08:38:10;10.88;;;3.88;;
36593;SDS011;22603;47.900;8.146;2023-06-22T08:41:00;14.55;;;3.97;;
36593;SDS011;22603;47.900;8.146;2023-06-22T08:43:48;14.70;;;4.40;;
36593;SDS011;22603;47.900;8.146;2023-06-22T08:46:36;14.73;;;3.95;;
36593;SDS011;22603;47.900;8.146;2023-06-22T08:49:25;11.88;;;3.25;;
36593;SDS011;22603;47.900;8.146;2023-06-22T08:52:12;12.75;;;3.80;;
36593;SDS011;22603;47.900;8.146;2023-06-22T08:54:59;13.93;;;3.78;;
36593;SDS011;22603;47.900;8.146;2023-06-22T08:57:47;15.95;;;3.78;;
36593;SDS011;22603;47.900;8.146;2023-06-22T09:00:34;11.75;;;3.35;;
36593;SDS011;22603;47.900;8.146;2023-06-22T09:03:24;13.27;;;3.63;;
36593;SDS011;22603;47.900;8.146;2023-06-22T09:06:12;13.52;;;3.67;;
36593;SDS011;22603;47.900;8.146;2023-06-22T09:09:00;14.73;;;3.78;;
36593;SDS011;22603;47.900;8.146;2023-06-22T09:11:47;9.88;;;3.00;;
36593;SDS011;22603;47.900;8.146;2023-06-22T09:14:34;17.58;;;3.50;;
36593;SDS011;22603;47.900;8.146;2023-06-22T09:17:21;11.93;;;3.35;;
36593;SDS011;22603;47.900;8.146;2023-06-22T09:20:10;19.77;;;3.65;;
36593;SDS011;22603;47.900;8.146;2023-06-22T09:22:57;20.85;;;3.25;;
36593;SDS011;22603;47.900;8.146;2023-06-22T09:25:45;13.25;;;3.15;;
36593;SDS011;22603;47.900;8.146;2023-06-22T09:28:33;13.23;;;3.47;;
36593;SDS011;22603;47.900;8.146;2023-06-22T09:31:21;14.65;;;3.28;;
36593;SDS011;22603;47.900;8.146;2023-06-22T09:34:10;14.52;;;3.22;;
36593;SDS011;22603;47.900;8.146;2023-06-22T09:36:59;10.43;;;2.72;;
36593;SDS011;22603;47.900;8.146;2023-06-22T09:39:47;16.25;;;3.08;;
36593;SDS011;22603;47.900;8.146;2023-06-22T09:42:34;16.42;;;2.92;;
36593;SDS011;22603;47.900;8.146;2023-06-22T09:45:21;15.80;;;3.03;;
36593;SDS011;22603;47.900;8.146;2023-06-22T09:48:08;10.93;;;3.08;;
36593;SDS011;22603;47.900;8.146;2023-06-22T09:50:56;15.43;;;3.72;;
36593;SDS011;22603;47.900;8.146;2023-06-22T09:53:45;10.55;;;2.50;;
36593;SDS011;22603;47.900;8.146;2023-06-22T09:56:32;13.65;;;2.70;;
36593;SDS011;22603;47.900;8.146;2023-06-22T09:59:19;16.40;;;2.40;;
36593;SDS011;22603;47.900;8.146;2023-06-22T10:02:06;7.97;;;2.05;;
36593;SDS011;22603;47.900;8.146;2023-06-22T10:04:54;14.77;;;3.15;;
36593;SDS011;22603;47.900;8.146;2023-06-22T10:07:41;9.52;;;2.63;;
36593;SDS011;22603;47.900;8.146;2023-06-22T10:10:31;9.75;;;2.70;;
36593;SDS011;22603;47.900;8.146;2023-06-22T10:13:18;13.82;;;2.83;;
36593;SDS011;22603;47.900;8.146;2023-06-22T10:16:05;11.93;;;2.45;;
36593;SDS011;22603;47.900;8.146;2023-06-22T10:18:53;12.45;;;2.63;;
36593;SDS011;22603;47.900;8.146;2023-06-22T10:21:40;10.23;;;2.28;;
36593;SDS011;22603;47.900;8.146;2023-06-22T10:24:27;19.50;;;2.50;;
36593;SDS011;22603;47.900;8.146;2023-06-22T10:27:16;11.30;;;2.97;;
36593;SDS011;22603;47.900;8.146;2023-06-22T10:30:03;10.85;;;2.33;;
36593;SDS011;22603;47.900;8.146;2023-06-22T10:32:51;14.20;;;2.95;;
36593;SDS011;22603;47.900;8.146;2023-06-22T10:35:38;17.17;;;2.80;;
36593;SDS011;22603;47.900;8.146;2023-06-22T10:38:25;13.43;;;2.65;;
36593;SDS011;22603;47.900;8.146;2023-06-22T10:41:12;9.73;;;2.35;;
36593;SDS011;22603;47.900;8.146;2023-06-22T10:44:01;9.57;;;2.03;;
36593;SDS011;22603;47.900;8.146;2023-06-22T10:46:49;11.52;;;3.00;;
36593;SDS011;22603;47.900;8.146;2023-06-22T10:49:35;12.43;;;2.20;;
36593;SDS011;22603;47.900;8.146;2023-06-22T10:52:23;14.77;;;2.45;;
36593;SDS011;22603;47.900;8.146;2023-06-22T10:55:11;12.25;;;2.30;;
36593;SDS011;22603;47.900;8.146;2023-06-22T10:57:57;9.25;;;2.30;;
36593;SDS011;22603;47.900;8.146;2023-06-22T11:00:46;15.65;;;3.00;;
36593;SDS011;22603;47.900;8.146;2023-06-22T11:03:33;8.77;;;2.13;;
36593;SDS011;22603;47.900;8.146;2023-06-22T11:06:21;11.30;;;2.35;;
36593;SDS011;22603;47.900;8.146;2023-06-22T11:09:08;17.17;;;2.63;;
36593;SDS011;22603;47.900;8.146;2023-06-22T11:12:01;15.43;;;3.00;;
36593;SDS011;22603;47.900;8.146;2023-06-22T11:14:49;15.55;;;3.08;;
36593;SDS011;22603;47.900;8.146;2023-06-22T11:17:38;7.60;;;2.58;;
36593;SDS011;22603;47.900;8.146;2023-06-22T11:20:25;16.83;;;2.85;;
36593;SDS011;22603;47.900;8.146;2023-06-22T11:23:13;10.35;;;2.08;;
36593;SDS011;22603;47.900;8.146;2023-06-22T11:26:00;14.25;;;2.53;;
36593;SDS011;22603;47.900;8.146;2023-06-22T11:28:47;11.65;;;2.80;;
36593;SDS011;22603;47.900;8.146;2023-06-22T11:31:34;12.88;;;2.55;;
36593;SDS011;22603;47.900;8.146;2023-06-22T11:34:23;13.77;;;3.20;;
36593;SDS011;22603;47.900;8.146;2023-06-22T11:37:11;8.13;;;2.50;;
36593;SDS011;22603;47.900;8.146;2023-06-22T11:39:58;12.63;;;2.40;;
36593;SDS011;22603;47.900;8.146;2023-06-22T11:42:49;11.88;;;2.65;;
36593;SDS011;22603;47.900;8.146;2023-06-22T11:45:37;12.60;;;2.55;;
36593;SDS011;22603;47.900;8.146;2023-06-22T11:48:24;11.15;;;2.30;;
36593;SDS011;22603;47.900;8.146;2023-06-22T11:51:12;11.77;;;2.38;;
36593;SDS011;22603;47.900;8.146;2023-06-22T11:53:59;14.85;;;2.58;;
36593;SDS011;22603;47.900;8.146;2023-06-22T11:56:47;17.25;;;3.10;;
36593;SDS011;22603;47.900;8.146;2023-06-22T11:59:34;12.65;;;2.45;;
36593;SDS011;22603;47.900;8.146;2023-06-22T12:02:22;12.80;;;2.40;;
36593;SDS011;22603;47.900;8.146;2023-06-22T12:05:09;7.95;;;2.50;;
36593;SDS011;22603;47.900;8.146;2023-06-22T12:07:59;7.70;;;2.35;;
36593;SDS011;22603;47.900;8.146;2023-06-22T12:10:46;13.68;;;2.35;;
36593;SDS011;22603;47.900;8.146;2023-06-22T12:13:33;13.73;;;2.05;;
36593;SDS011;22603;47.900;8.146;2023-06-22T12:16:20;10.65;;;2.45;;
36593;SDS011;22603;47.900;8.146;2023-06-22T12:19:09;13.05;;;2.28;;
36593;SDS011;22603;47.900;8.146;2023-06-22T12:21:57;5.85;;;1.98;;
36593;SDS011;22603;47.900;8.146;2023-06-22T12:24:45;15.80;;;2.20;;
36593;SDS011;22603;47.900;8.146;2023-06-22T12:27:32;9.43;;;2.03;;
36593;SDS011;22603;47.900;8.146;2023-06-22T12:30:20;11.32;;;2.72;;
36593;SDS011;22603;47.900;8.146;2023-06-22T12:33:07;9.43;;;2.67;;
36593;SDS011;22603;47.900;8.146;2023-06-22T12:35:54;10.88;;;2.42;;
36593;SDS011;22603;47.900;8.146;2023-06-22T12:38:41;11.15;;;1.85;;
36593;SDS011;22603;47.900;8.146;2023-06-22T12:41:29;12.13;;;2.30;;
36593;SDS011;22603;47.900;8.146;2023-06-22T12:44:16;13.95;;;2.92;;
36593;SDS011;22603;47.900;8.146;2023-06-22T12:47:04;13.98;;;2.53;;
36593;SDS011;22603;47.900;8.146;2023-06-22T12:49:51;7.82;;;2.13;;
36593;SDS011;22603;47.900;8.146;2023-06-22T12:52:39;11.13;;;2.55;;
36593;SDS011;22603;47.900;8.146;2023-06-22T12:55:26;12.98;;;3.10;;
36593;SDS011;22603;47.900;8.146;2023-06-22T12:58:16;8.57;;;2.38;;
36593;SDS011;22603;47.900;8.146;2023-06-22T13:01:03;13.30;;;2.28;;
36593;SDS011;22603;47.900;8.146;2023-06-22T13:03:50;9.07;;;2.75;;
36593;SDS011;22603;47.900;8.146;2023-06-22T13:06:37;9.07;;;2.55;;
36593;SDS011;22603;47.900;8.146;2023-06-22T13:09:25;9.80;;;2.80;;
36593;SDS011;22603;47.900;8.146;2023-06-22T13:12:12;10.50;;;2.58;;
36593;SDS011;22603;47.900;8.146;2023-06-22T13:15:01;12.65;;;2.72;;
36593;SDS011;22603;47.900;8.146;2023-06-22T13:17:48;9.88;;;2.30;;
36593;SDS011;22603;47.900;8.146;2023-06-22T13:20:36;16.85;;;2.80;;
36593;SDS011;22603;47.900;8.146;2023-06-22T13:23:23;5.57;;;1.90;;
36593;SDS011;22603;47.900;8.146;2023-06-22T13:26:10;7.72;;;2.35;;
36593;SDS011;22603;47.900;8.146;2023-06-22T13:28:57;12.15;;;2.90;;
36593;SDS011;22603;47.900;8.146;2023-06-22T13:31:46;10.65;;;2.22;;
36593;SDS011;22603;47.900;8.146;2023-06-22T13:34:33;10.60;;;2.88;;
36593;SDS011;22603;47.900;8.146;2023-06-22T13:37:20;11.15;;;2.53;;
36593;SDS011;22603;47.900;8.146;2023-06-22T13:40:07;18.33;;;3.50;;
36593;SDS011;22603;47.900;8.146;2023-06-22T13:42:55;12.50;;;3.88;;
36593;SDS011;22603;47.900;8.146;2023-06-22T13:45:42;16.15;;;3.80;;
36593;SDS011;22603;47.900;8.146;2023-06-22T13:48:31;11.35;;;3.60;;
36593;SDS011;22603;47.900;8.146;2023-06-22T13:51:18;14.65;;;3.88;;
36593;SDS011;22603;47.900;8.146;2023-06-22T13:54:05;17.77;;;4.15;;
36593;SDS011;22603;47.900;8.146;2023-06-22T13:57:12;13.95;;;3.88;;
36593;SDS011;22603;47.900;8.146;2023-06-22T13:59:59;11.90;;;3.80;;
36593;SDS011;22603;47.900;8.146;2023-06-22T14:02:46;12.23;;;4.03;;
36593;SDS011;22603;47.900;8.146;2023-06-22T14:05:35;13.68;;;3.30;;
36593;SDS011;22603;47.900;8.146;2023-06-22T14:08:22;6.80;;;2.75;;
36593;SDS011;22603;47.900;8.146;2023-06-22T14:11:26;12.48;;;3.60;;
36593;SDS011;22603;47.900;8.146;2023-06-22T14:14:13;12.88;;;3.45;;
36593;SDS011;22603;47.900;8.146;2023-06-22T14:16:59;9.88;;;2.78;;
36593;SDS011;22603;47.900;8.146;2023-06-22T14:19:47;11.45;;;3.28;;
36593;SDS011;22603;47.900;8.146;2023-06-22T14:22:35;11.77;;;3.42;;
36593;SDS011;22603;47.900;8.146;2023-06-22T14:25:22;10.85;;;2.88;;
36593;SDS011;22603;47.900;8.146;2023-06-22T14:28:09;13.38;;;3.55;;
36593;SDS011;22603;47.900;8.146;2023-06-22T14:30:57;16.20;;;3.10;;
36593;SDS011;22603;47.900;8.146;2023-06-22T14:33:45;9.45;;;2.67;;
36593;SDS011;22603;47.900;8.146;2023-06-22T14:36:33;9.27;;;2.50;;
36593;SDS011;22603;47.900;8.146;2023-06-22T14:39:22;10.00;;;2.88;;
36593;SDS011;22603;47.900;8.146;2023-06-22T14:42:09;9.00;;;3.03;;
36593;SDS011;22603;47.900;8.146;2023-06-22T14:44:56;11.38;;;2.95;;
36593;SDS011;22603;47.900;8.146;2023-06-22T14:47:43;10.80;;;2.78;;
36593;SDS011;22603;47.900;8.146;2023-06-22T14:50:30;8.68;;;2.92;;
36593;SDS011;22603;47.900;8.146;2023-06-22T14:53:17;9.30;;;2.60;;
36593;SDS011;22603;47.900;8.146;2023-06-22T14:56:06;12.75;;;2.75;;
36593;SDS011;22603;47.900;8.146;2023-06-22T14:58:53;11.38;;;3.03;;
36593;SDS011;22603;47.900;8.146;2023-06-22T15:01:39;7.50;;;2.45;;
36593;SDS011;22603;47.900;8.146;2023-06-22T15:04:29;8.80;;;2.42;;
36593;SDS011;22603;47.900;8.146;2023-06-22T15:07:20;6.90;;;2.42;;
36593;SDS011;22603;47.900;8.146;2023-06-22T15:10:07;13.32;;;2.63;;
36593;SDS011;22603;47.900;8.146;2023-06-22T15:12:56;11.55;;;2.80;;
36593;SDS011;22603;47.900;8.146;2023-06-22T15:15:43;11.55;;;2.90;;
36593;SDS011;22603;47.900;8.146;2023-06-22T15:18:32;8.05;;;2.58;;
36593;SDS011;22603;47.900;8.146;2023-06-22T15:21:21;12.00;;;3.10;;
36593;SDS011;22603;47.900;8.146;2023-06-22T15:24:07;11.25;;;2.60;;
36593;SDS011;22603;47.900;8.146;2023-06-22T15:26:54;11.02;;;2.65;;
36593;SDS011;22603;47.900;8.146;2023-06-22T15:29:43;9.98;;;2.25;;
36593;SDS011;22603;47.900;8.146;2023-06-22T15:32:30;12.10;;;2.58;;
36593;SDS011;22603;47.900;8.146;2023-06-22T15:35:17;9.32;;;2.85;;
36593;SDS011;22603;47.900;8.146;2023-06-22T15:38:05;7.43;;;1.92;;
36593;SDS011;22603;47.900;8.146;2023-06-22T15:40:51;9.77;;;2.22;;
36593;SDS011;22603;47.900;8.146;2023-06-22T15:43:38;8.57;;;2.35;;
36593;SDS011;22603;47.900;8.146;2023-06-22T15:46:27;8.60;;;2.30;;
36593;SDS011;22603;47.900;8.146;2023-06-22T15:49:15;6.35;;;1.75;;
36593;SDS011;22603;47.900;8.146;2023-06-22T15:52:02;7.60;;;2.28;;
36593;SDS011;22603;47.900;8.146;2023-06-22T15:54:49;8.32;;;2.40;;
36593;SDS011;22603;47.900;8.146;2023-06-22T15:57:39;10.95;;;2.40;;
36593;SDS011;22603;47.900;8.146;2023-06-22T16:00:26;9.23;;;2.10;;
36593;SDS011;22603;47.900;8.146;2023-06-22T16:03:15;7.82;;;2.17;;
36593;SDS011;22603;47.900;8.146;2023-06-22T16:06:02;8.55;;;1.90;;
36593;SDS011;22603;47.900;8.146;2023-06-22T16:08:49;11.68;;;2.38;;
36593;SDS011;22603;47.900;8.146;2023-06-22T16:11:36;10.98;;;2.00;;
36593;SDS011;22603;47.900;8.146;2023-06-22T16:14:24;5.85;;;1.63;;
36593;SDS011;22603;47.900;8.146;2023-06-22T16:17:14;4.68;;;1.83;;
36593;SDS011;22603;47.900;8.146;2023-06-22T16:20:03;7.38;;;1.92;;
36593;SDS011;22603;47.900;8.146;2023-06-22T16:22:51;4.18;;;1.52;;
36593;SDS011;22603;47.900;8.146;2023-06-22T16:25:38;8.27;;;1.98;;
36593;SDS011;22603;47.900;8.146;2023-06-22T16:28:25;9.73;;;2.10;;
36593;SDS011;22603;47.900;8.146;2023-06-22T16:31:13;6.03;;;1.83;;
36593;SDS011;22603;47.900;8.146;2023-06-22T16:34:01;5.55;;;1.70;;
36593;SDS011;22603;47.900;8.146;2023-06-22T16:36:49;12.70;;;2.15;;
36593;SDS011;22603;47.900;8.146;2023-06-22T16:39:37;8.18;;;2.00;;
36593;SDS011;22603;47.900;8.146;2023-06-22T16:42:24;9.82;;;2.05;;